createdAt,value
2023-01-20T00:01:58.601Z,10.85
2023-01-20T00:07:03.411Z,9.52
2023-01-20T00:12:08.273Z,10.68
2023-01-20T00:17:15.610Z,10.43
2023-01-20T00:22:20.262Z,10.27
2023-01-20T00:27:24.958Z,11.25
2023-01-20T00:32:32.283Z,11.25
2023-01-20T00:37:36.957Z,10.45
2023-01-20T00:42:41.746Z,12.35
2023-01-20T00:47:49.046Z,12.18
2023-01-20T00:52:53.753Z,9.95
2023-01-20T00:57:58.601Z,10.95
2023-01-20T01:03:05.958Z,10.73
2023-01-20T01:08:10.942Z,9.07
2023-01-20T01:13:15.689Z,9.32
2023-01-20T01:18:23.053Z,9.45
2023-01-20T01:23:27.828Z,10.45
2023-01-20T01:28:32.523Z,10.50
2023-01-20T01:33:39.870Z,11.70
2023-01-20T01:38:44.770Z,9.88
2023-01-20T01:44:08.836Z,12.10
2023-01-20T01:49:19.353Z,9.52
2023-01-20T01:54:26.361Z,10.40
2023-01-20T01:59:31.190Z,9.50
2023-01-20T02:04:38.865Z,12.00
2023-01-20T02:09:43.659Z,10.95
2023-01-20T02:14:50.510Z,11.23
2023-01-20T02:20:12.840Z,11.93
2023-01-20T02:25:30.724Z,13.90
2023-01-20T02:30:42.847Z,12.13
2023-01-20T02:35:52.851Z,12.55
2023-01-20T02:41:00.104Z,13.02
2023-01-20T02:46:06.611Z,12.52
2023-01-20T02:51:16.051Z,12.73
2023-01-20T02:56:21.026Z,11.20
2023-01-20T03:01:28.085Z,12.35
2023-01-20T03:06:38.092Z,11.50
2023-01-20T03:11:46.094Z,13.32
2023-01-20T03:16:51.047Z,13.20
2023-01-20T03:21:58.433Z,12.63
2023-01-20T03:27:03.090Z,11.13
2023-01-20T03:32:08.966Z,12.10
2023-01-20T03:37:16.679Z,13.00
2023-01-20T03:42:26.399Z,12.23
2023-01-20T03:47:37.541Z,12.70
2023-01-20T03:52:48.754Z,12.75
2023-01-20T03:57:57.604Z,12.98
2023-01-20T04:03:03.217Z,12.68
2023-01-20T04:08:12.136Z,13.73
2023-01-20T04:13:17.582Z,13.15
2023-01-20T04:18:23.205Z,12.23
2023-01-20T04:23:32.616Z,13.32
2023-01-20T04:28:37.318Z,12.83
2023-01-20T04:33:42.054Z,14.45
2023-01-20T04:38:49.471Z,14.32
2023-01-20T04:43:54.228Z,12.30
2023-01-20T04:48:58.947Z,11.98
2023-01-20T04:54:06.391Z,11.57
2023-01-20T04:59:11.238Z,12.43
2023-01-20T05:04:16.033Z,11.23
2023-01-20T05:09:23.680Z,12.40
2023-01-20T05:14:28.385Z,13.38
2023-01-20T05:19:33.102Z,12.90
2023-01-20T05:24:40.373Z,11.93
2023-01-20T05:29:45.064Z,12.02
2023-01-20T05:34:49.777Z,13.50
2023-01-20T05:39:57.208Z,14.05
2023-01-20T05:45:01.942Z,12.95
2023-01-20T05:50:06.990Z,12.75
2023-01-20T05:55:14.678Z,16.05
2023-01-20T06:00:20.007Z,14.57
2023-01-20T06:05:24.926Z,15.85
2023-01-20T06:10:32.287Z,13.18
2023-01-20T06:15:37.009Z,14.60
2023-01-20T06:20:41.750Z,18.67
2023-01-20T06:25:49.112Z,22.65
2023-01-20T06:30:53.969Z,20.83
2023-01-20T06:35:58.880Z,42.88
2023-01-20T06:41:07.863Z,36.83
2023-01-20T06:46:14.018Z,23.60
2023-01-20T06:51:19.664Z,26.27
2023-01-20T06:56:27.035Z,25.73
2023-01-20T07:01:32.580Z,26.67
2023-01-20T07:06:38.604Z,35.20
2023-01-20T07:11:46.123Z,22.55
2023-01-20T07:16:50.868Z,26.55
2023-01-20T07:21:55.612Z,31.00
2023-01-20T07:27:03.038Z,22.58
2023-01-20T07:32:08.493Z,19.75
2023-01-20T07:37:15.074Z,17.58
2023-01-20T07:42:44.812Z,15.77
2023-01-20T07:47:47.944Z,17.95
2023-01-20T07:52:52.769Z,34.55
2023-01-20T07:58:00.729Z,34.78
2023-01-20T08:03:08.080Z,27.02
2023-01-20T08:08:12.778Z,30.05
2023-01-20T08:13:20.219Z,33.55
2023-01-20T08:18:34.156Z,27.00
2023-01-20T08:23:48.901Z,63.83
2023-01-20T08:28:56.716Z,54.92
2023-01-20T08:34:01.798Z,123.97
2023-01-20T08:39:18.772Z,38.60
2023-01-20T08:44:26.195Z,30.00
2023-01-20T08:49:33.411Z,30.65
2023-01-20T08:54:38.218Z,26.42
2023-01-20T08:59:47.197Z,27.52
2023-01-20T09:04:51.969Z,28.73
2023-01-20T09:09:57.193Z,25.77
2023-01-20T09:15:08.274Z,26.40
2023-01-20T09:20:13.836Z,25.60
2023-01-20T09:25:18.760Z,30.58
2023-01-20T09:30:26.259Z,32.85
2023-01-20T09:35:31.029Z,34.50
2023-01-20T09:40:51.343Z,34.95
2023-01-20T09:46:00.523Z,49.40
2023-01-20T09:51:21.024Z,43.42
2023-01-20T09:56:27.234Z,30.48
2023-01-20T10:01:39.867Z,46.60
2023-01-20T10:06:46.476Z,29.77
2023-01-20T10:11:52.168Z,24.02
2023-01-20T10:17:06.825Z,29.38
2023-01-20T10:22:13.319Z,30.33
2023-01-20T10:27:17.997Z,32.78
2023-01-20T10:32:31.225Z,31.95
2023-01-20T10:37:35.915Z,35.58
2023-01-20T10:42:42.562Z,54.95
2023-01-20T10:47:53.674Z,31.52
2023-01-20T10:53:13.715Z,70.20
2023-01-20T10:58:21.427Z,45.53
2023-01-20T11:03:28.812Z,51.85
2023-01-20T11:08:33.577Z,39.05
2023-01-20T11:13:48.083Z,44.85
2023-01-20T11:19:03.235Z,82.63
2023-01-20T11:24:31.099Z,72.05
2023-01-20T11:29:40.856Z,96.47
2023-01-20T11:34:52.197Z,40.67
2023-01-20T11:40:01.923Z,48.70
2023-01-20T11:45:20.856Z,39.05
2023-01-20T11:50:31.622Z,27.52
2023-01-20T11:55:36.376Z,21.13
2023-01-20T12:00:47.842Z,22.70
2023-01-20T12:06:02.390Z,26.42
2023-01-20T12:11:10.087Z,48.40
2023-01-20T12:16:14.855Z,23.35
2023-01-20T12:21:23.216Z,20.23
2023-01-20T12:26:32.754Z,18.52
2023-01-20T12:31:37.631Z,18.23
2023-01-20T12:36:58.403Z,21.67
2023-01-20T12:47:17.441Z,82.95
2023-01-20T12:52:31.033Z,20.92
2023-01-20T12:57:44.253Z,21.95
2023-01-20T13:03:06.962Z,30.63
2023-01-20T13:08:20.753Z,33.53
2023-01-20T13:13:34.656Z,41.70
2023-01-20T13:18:49.927Z,44.28
2023-01-20T13:23:57.367Z,45.67
2023-01-20T13:29:02.597Z,43.10
2023-01-20T13:39:45.178Z,29.47
2023-01-20T13:45:09.915Z,29.38
2023-01-20T13:50:24.941Z,31.20
2023-01-20T13:55:54.569Z,33.80
2023-01-20T14:01:00.281Z,29.27
2023-01-20T14:06:06.186Z,27.00
2023-01-20T14:11:15.355Z,23.42
2023-01-20T14:16:22.040Z,29.33
2023-01-20T14:21:27.758Z,37.00
2023-01-20T14:26:35.113Z,32.72
2023-01-20T14:31:43.108Z,36.10
2023-01-20T14:36:49.336Z,66.22
2023-01-20T14:41:57.224Z,30.33
2023-01-20T14:47:03.201Z,25.20
2023-01-20T14:52:08.394Z,23.80
2023-01-20T14:57:25.084Z,21.85
2023-01-20T15:02:31.141Z,23.85
2023-01-20T15:07:37.229Z,23.05
2023-01-20T15:12:56.256Z,19.27
2023-01-20T15:18:23.334Z,79.05
2023-01-20T15:23:35.874Z,26.88
2023-01-20T15:28:45.471Z,18.80
2023-01-20T15:33:50.354Z,16.20
2023-01-20T15:38:55.194Z,16.52
2023-01-20T15:44:02.515Z,18.33
2023-01-20T15:49:07.493Z,17.98
2023-01-20T15:54:13.978Z,15.80
2023-01-20T15:59:22.564Z,16.25
2023-01-20T16:04:28.956Z,17.27
2023-01-20T16:09:37.370Z,16.98
2023-01-20T16:14:45.507Z,17.60
2023-01-20T16:19:50.190Z,16.98
2023-01-20T16:24:54.824Z,18.88
2023-01-20T16:30:02.221Z,17.63
2023-01-20T16:35:07.342Z,20.33
2023-01-20T16:40:15.076Z,87.55
2023-01-20T16:45:27.758Z,19.08
2023-01-20T16:50:32.466Z,17.30
2023-01-20T16:55:44.879Z,17.40
2023-01-20T17:00:52.221Z,18.33
2023-01-20T17:05:57.758Z,18.15
2023-01-20T17:11:09.873Z,16.42
2023-01-20T17:16:17.626Z,18.17
2023-01-20T17:21:23.615Z,17.58
2023-01-20T17:26:28.852Z,16.80
2023-01-20T17:31:37.299Z,16.67
2023-01-20T17:36:45.241Z,19.25
2023-01-20T17:41:49.934Z,18.45
2023-01-20T17:46:57.490Z,18.45
2023-01-20T17:52:02.248Z,17.25
2023-01-20T17:57:07.013Z,18.15
2023-01-20T18:02:18.738Z,21.38
2023-01-20T18:07:23.669Z,25.85
2023-01-20T18:12:28.444Z,28.83
2023-01-20T18:17:35.889Z,34.35
2023-01-20T18:22:45.399Z,36.05
2023-01-20T18:27:50.956Z,58.10
2023-01-20T18:32:59.096Z,41.83
2023-01-20T18:38:03.854Z,33.30
2023-01-20T18:43:08.922Z,26.70
2023-01-20T18:48:16.789Z,22.42
2023-01-20T18:53:21.641Z,22.67
2023-01-20T18:58:28.361Z,20.15
2023-01-20T19:03:36.473Z,19.98
2023-01-20T19:08:41.663Z,23.13
2023-01-20T19:13:47.144Z,24.65
2023-01-20T19:18:56.165Z,23.77
2023-01-20T19:24:01.730Z,23.85
2023-01-20T19:29:07.610Z,25.48
2023-01-20T19:34:16.236Z,22.98
2023-01-20T19:39:20.907Z,23.65
2023-01-20T19:44:27.881Z,32.05
2023-01-20T19:49:35.347Z,26.88
2023-01-20T19:54:40.034Z,23.55
2023-01-20T19:59:45.209Z,22.02
2023-01-20T20:04:59.141Z,19.75
2023-01-20T20:10:03.864Z,23.50
2023-01-20T20:15:09.891Z,41.08
2023-01-20T20:20:17.631Z,23.65
2023-01-20T20:25:22.429Z,20.73
2023-01-20T20:30:27.861Z,19.80
2023-01-20T20:35:37.814Z,20.13
2023-01-20T20:40:42.644Z,20.23
2023-01-20T20:45:47.439Z,23.92
2023-01-20T20:50:54.752Z,24.52
2023-01-20T20:56:04.081Z,24.05
2023-01-20T21:01:11.195Z,32.97
2023-01-20T21:06:19.504Z,31.25
2023-01-20T21:11:24.635Z,26.50
2023-01-20T21:16:29.959Z,22.55
2023-01-20T21:21:37.367Z,26.23
2023-01-20T21:26:42.052Z,44.75
2023-01-20T21:31:47.396Z,63.92
2023-01-20T21:36:54.731Z,74.70
2023-01-20T21:41:59.401Z,70.45
2023-01-20T21:47:05.438Z,36.40
2023-01-20T21:52:27.578Z,34.33
2023-01-20T21:57:32.854Z,41.58
2023-01-20T22:02:37.698Z,43.83
2023-01-20T22:07:48.006Z,40.28
2023-01-20T22:12:52.770Z,41.63
2023-01-20T22:17:57.745Z,32.50
2023-01-20T22:23:05.271Z,26.73
2023-01-20T22:28:09.978Z,18.48
2023-01-20T22:33:16.873Z,32.20
2023-01-20T22:38:24.123Z,20.85
2023-01-20T22:43:28.844Z,22.90
2023-01-20T22:48:33.963Z,30.45
2023-01-20T22:53:42.182Z,26.30
2023-01-20T22:58:47.317Z,24.17
2023-01-20T23:03:55.971Z,25.35
2023-01-20T23:09:03.643Z,26.10
2023-01-20T23:14:10.817Z,26.17
2023-01-20T23:19:16.015Z,22.50
2023-01-20T23:24:24.592Z,22.65
2023-01-20T23:29:29.369Z,27.55
2023-01-20T23:34:34.025Z,28.88
2023-01-20T23:39:41.261Z,28.58
2023-01-20T23:44:48.671Z,25.45
2023-01-20T23:49:53.667Z,34.92
2023-01-20T23:55:01.550Z,45.20
